createdAt,value
2019-04-23T00:00:07.268Z,17.10
2019-04-23T00:02:23.293Z,17.30
2019-04-23T00:04:52.796Z,17.30
2019-04-23T00:07:39.551Z,17.50
2019-04-23T00:10:01.241Z,17.40
2019-04-23T00:12:40.907Z,17.30
2019-04-23T00:15:04.353Z,17.20
2019-04-23T00:17:36.065Z,17.00
2019-04-23T00:19:56.070Z,17.30
2019-04-23T00:22:50.086Z,17.00
2019-04-23T00:25:41.551Z,17.10
2019-04-23T00:27:47.845Z,17.20
2019-04-23T00:30:14.692Z,17.20
2019-04-23T00:32:39.249Z,17.10
2019-04-23T00:35:14.785Z,17.10
2019-04-23T00:37:55.136Z,17.10
2019-04-23T00:40:11.959Z,17.10
2019-04-23T00:42:44.687Z,17.00
2019-04-23T00:45:12.343Z,17.00
2019-04-23T00:47:40.154Z,16.90
2019-04-23T00:50:12.353Z,17.00
2019-04-23T00:52:40.742Z,17.10
2019-04-23T00:55:12.449Z,17.00
2019-04-23T00:57:43.412Z,17.00
2019-04-23T01:00:23.951Z,17.00
2019-04-23T01:02:37.026Z,16.80
2019-04-23T01:05:11.379Z,16.80
2019-04-23T01:07:40.299Z,16.80
2019-04-23T01:10:20.254Z,16.70
2019-04-23T01:12:51.682Z,16.70
2019-04-23T01:15:21.742Z,16.70
2019-04-23T01:20:26.887Z,16.60
2019-04-23T01:22:31.495Z,16.80
2019-04-23T01:25:13.335Z,16.70
2019-04-23T01:28:23.632Z,16.70
2019-04-23T01:30:34.338Z,16.70
2019-04-23T01:33:10.986Z,16.60
2019-04-23T01:35:33.542Z,16.40
2019-04-23T01:38:06.160Z,16.60
2019-04-23T01:40:39.380Z,16.70
2019-04-23T01:43:04.267Z,16.70
2019-04-23T01:45:29.666Z,16.60
2019-04-23T01:48:04.832Z,16.50
2019-04-23T01:50:43.419Z,16.40
2019-04-23T01:53:14.773Z,16.40
2019-04-23T01:55:42.457Z,16.60
2019-04-23T01:58:27.585Z,16.60
2019-04-23T02:00:40.783Z,16.50
2019-04-23T02:03:13.603Z,16.20
2019-04-23T02:05:42.875Z,16.50
2019-04-23T02:08:11.059Z,16.30
2019-04-23T02:10:45.717Z,16.40
2019-04-23T02:15:46.422Z,16.30
2019-04-23T02:18:14.932Z,16.30
2019-04-23T02:20:46.142Z,16.30
2019-04-23T02:25:49.970Z,16.20
2019-04-23T02:28:15.967Z,16.30
2019-04-23T02:31:15.428Z,16.20
2019-04-23T02:33:39.847Z,16.20
2019-04-23T02:38:31.809Z,16.20
2019-04-23T02:48:27.451Z,16.20
2019-04-23T02:50:47.937Z,16.20
2019-04-23T02:58:28.132Z,16.10
2019-04-23T03:01:14.874Z,16.10
2019-04-23T03:05:57.340Z,16.10
2019-04-23T03:08:26.771Z,16.10
2019-04-23T03:11:04.727Z,16.20
2019-04-23T03:16:15.559Z,16.00
2019-04-23T03:24:11.354Z,16.00
2019-04-23T03:26:25.179Z,15.90
2019-04-23T03:35:09.745Z,15.90
2019-04-23T03:38:51.506Z,15.80
2019-04-23T03:43:47.015Z,16.00
2019-04-23T03:48:54.962Z,15.70
2019-04-23T03:51:31.002Z,15.90
2019-04-23T03:54:03.997Z,15.80
2019-04-23T03:58:59.278Z,15.80
2019-04-23T04:01:38.851Z,15.70
2019-04-23T04:06:39.519Z,15.80
2019-04-23T04:08:58.785Z,15.80
2019-04-23T04:14:01.624Z,15.80
2019-04-23T04:16:18.223Z,15.90
2019-04-23T04:18:54.309Z,16.00
2019-04-23T04:21:27.620Z,16.00
2019-04-23T04:29:27.535Z,15.90
2019-04-23T04:31:48.410Z,16.00
2019-04-23T04:34:26.934Z,15.80
2019-04-23T04:37:16.485Z,16.00
2019-04-23T04:39:00.032Z,15.80
2019-04-23T04:41:40.475Z,16.00
2019-04-23T04:44:38.233Z,16.00
2019-04-23T04:46:45.583Z,16.10
2019-04-23T04:51:53.626Z,15.80
2019-04-23T04:56:46.917Z,15.80
2019-04-23T04:59:08.558Z,16.00
2019-04-23T05:01:39.613Z,16.00
2019-04-23T05:04:18.264Z,16.10
2019-04-23T05:06:47.643Z,16.00
2019-04-23T05:09:16.937Z,16.20
2019-04-23T05:14:35.520Z,16.00
2019-04-23T05:22:00.525Z,16.20
2019-04-23T05:24:21.375Z,16.30
2019-04-23T05:26:51.784Z,16.30
2019-04-23T05:31:51.527Z,16.40
2019-04-23T05:34:14.542Z,16.30
2019-04-23T05:36:49.773Z,16.40
2019-04-23T05:39:26.846Z,16.60
2019-04-23T05:41:49.958Z,16.40
2019-04-23T05:44:21.633Z,16.40
2019-04-23T05:46:54.013Z,16.70
2019-04-23T05:49:22.314Z,16.60
2019-04-23T05:51:50.834Z,16.70
2019-04-23T05:56:49.097Z,16.50
2019-04-23T06:04:17.722Z,16.70
2019-04-23T06:11:51.154Z,17.00
2019-04-23T06:19:17.151Z,17.00
2019-04-23T06:21:52.483Z,17.30
2019-04-23T06:24:22.176Z,17.50
2019-04-23T06:26:49.315Z,17.50
2019-04-23T06:29:21.088Z,17.40
2019-04-23T06:34:20.353Z,17.70
2019-04-23T06:36:46.353Z,17.80
2019-04-23T06:39:28.650Z,17.70
2019-04-23T06:41:47.619Z,17.70
2019-04-23T06:44:32.334Z,17.50
2019-04-23T06:47:16.790Z,17.70
2019-04-23T06:52:10.321Z,18.00
2019-04-23T06:54:42.375Z,17.80
2019-04-23T06:57:06.533Z,17.80
2019-04-23T06:59:33.578Z,17.90
2019-04-23T07:02:06.664Z,17.90
2019-04-23T07:07:29.608Z,18.00
2019-04-23T07:09:27.461Z,18.30
2019-04-23T07:12:05.321Z,18.20
2019-04-23T07:14:35.923Z,18.30
2019-04-23T07:17:02.677Z,18.20
2019-04-23T07:19:37.059Z,18.30
2019-04-23T07:22:08.151Z,18.20
2019-04-23T07:24:28.432Z,18.20
2019-04-23T07:26:52.794Z,18.30
2019-04-23T07:29:34.893Z,18.50
2019-04-23T07:32:03.601Z,18.60
2019-04-23T07:34:30.263Z,18.70
2019-04-23T07:37:03.381Z,18.70
2019-04-23T07:39:47.176Z,18.50
2019-04-23T07:44:50.153Z,18.50
2019-04-23T07:47:21.758Z,18.50
2019-04-23T07:50:00.737Z,18.50
2019-04-23T07:52:29.764Z,18.30
2019-04-23T07:54:52.614Z,18.30
2019-04-23T07:57:21.995Z,18.90
2019-04-23T08:02:21.958Z,18.50
2019-04-23T08:05:13.081Z,18.60
2019-04-23T08:07:19.920Z,18.50
2019-04-23T08:09:47.818Z,18.50
2019-04-23T08:12:25.824Z,18.70
2019-04-23T08:17:17.550Z,18.60
2019-04-23T08:19:56.338Z,18.70
2019-04-23T08:24:59.211Z,18.70
2019-04-23T08:27:40.359Z,18.70
2019-04-23T08:29:50.858Z,19.20
2019-04-23T08:35:09.262Z,19.60
2019-04-23T08:37:36.441Z,19.40
2019-04-23T08:40:07.846Z,19.40
2019-04-23T08:47:31.869Z,19.80
2019-04-23T08:50:05.908Z,19.60
2019-04-23T08:52:29.984Z,19.50
2019-04-23T08:55:31.261Z,19.80
2019-04-23T08:57:31.907Z,19.80
2019-04-23T09:00:02.703Z,19.40
2019-04-23T09:02:47.816Z,19.50
2019-04-23T09:05:12.528Z,19.60
2019-04-23T09:07:54.118Z,19.40
2019-04-23T09:10:17.844Z,19.40
2019-04-23T09:12:35.013Z,19.30
2019-04-23T09:15:13.481Z,19.40
2019-04-23T09:17:46.439Z,19.30
2019-04-23T09:22:34.739Z,19.40
2019-04-23T09:27:34.714Z,19.00
2019-04-23T09:30:09.366Z,18.90
2019-04-23T09:35:14.414Z,18.90
2019-04-23T09:37:43.685Z,19.00
2019-04-23T09:40:29.878Z,19.10
2019-04-23T09:42:54.430Z,18.90
2019-04-23T09:45:34.216Z,19.00
2019-04-23T09:58:11.880Z,18.90
2019-04-23T10:00:43.299Z,19.30
2019-04-23T10:03:03.618Z,19.50
2019-04-23T10:05:28.786Z,19.40
2019-04-23T10:07:58.648Z,19.40
2019-04-23T10:10:18.437Z,19.40
2019-04-23T10:12:48.300Z,19.50
2019-04-23T10:15:26.196Z,19.50
2019-04-23T10:17:50.013Z,19.40
2019-04-23T10:20:18.500Z,19.50
2019-04-23T10:22:46.337Z,19.50
2019-04-23T10:25:15.304Z,19.90
2019-04-23T10:27:43.371Z,19.70
2019-04-23T10:30:12.387Z,19.80
2019-04-23T10:32:40.261Z,19.80
2019-04-23T10:35:20.950Z,19.50
2019-04-23T10:37:46.764Z,19.80
2019-04-23T10:40:15.372Z,20.00
2019-04-23T10:42:44.633Z,19.90
2019-04-23T10:45:30.210Z,20.20
2019-04-23T10:48:32.654Z,20.50
2019-04-23T10:51:06.184Z,20.60
2019-04-23T10:53:38.314Z,20.30
2019-04-23T10:56:10.802Z,20.20
2019-04-23T10:58:35.200Z,20.20
2019-04-23T11:01:15.169Z,20.00
2019-04-23T11:03:49.195Z,20.30
2019-04-23T11:06:17.713Z,20.00
2019-04-23T11:11:07.881Z,20.80
2019-04-23T11:13:39.478Z,20.80
2019-04-23T11:16:39.952Z,21.20
2019-04-23T11:18:53.880Z,21.20
2019-04-23T11:21:13.580Z,21.30
2019-04-23T11:23:40.978Z,20.80
2019-04-23T11:26:14.169Z,20.50
2019-04-23T11:28:38.328Z,20.60
2019-04-23T11:31:25.987Z,20.80
2019-04-23T11:33:50.966Z,20.90
2019-04-23T11:36:43.620Z,21.00
2019-04-23T11:41:18.907Z,20.80
2019-04-23T11:46:32.565Z,20.90
2019-04-23T11:56:22.880Z,20.50
2019-04-23T11:58:42.598Z,20.50
2019-04-23T12:01:38.604Z,20.50
2019-04-23T12:04:12.745Z,20.30
2019-04-23T12:06:38.826Z,19.90
2019-04-23T12:09:25.924Z,19.60
2019-04-23T12:12:02.176Z,19.50
2019-04-23T12:14:37.520Z,19.50
2019-04-23T12:17:18.570Z,19.80
2019-04-23T12:19:53.122Z,19.50
2019-04-23T12:22:10.389Z,19.70
2019-04-23T12:24:58.515Z,20.00
2019-04-23T12:29:33.712Z,20.00
2019-04-23T12:32:35.470Z,19.70
2019-04-23T12:34:52.832Z,19.90
2019-04-23T12:37:26.958Z,19.90
2019-04-23T12:39:56.292Z,20.10
2019-04-23T12:42:38.365Z,20.00
2019-04-23T12:44:55.137Z,19.90
2019-04-23T12:47:40.189Z,19.90
2019-04-23T12:50:13.683Z,20.10
2019-04-23T12:52:21.319Z,20.20
2019-04-23T12:55:02.845Z,20.00
2019-04-23T12:57:18.625Z,19.80
2019-04-23T13:02:27.473Z,19.90
2019-04-23T13:04:48.774Z,19.60
2019-04-23T13:07:26.406Z,20.10
2019-04-23T13:12:36.301Z,20.60
2019-04-23T13:14:56.032Z,20.70
2019-04-23T13:22:49.405Z,20.80
2019-04-23T13:25:20.191Z,20.50
2019-04-23T13:27:55.527Z,20.80
2019-04-23T13:30:25.260Z,20.70
2019-04-23T13:32:52.182Z,20.60
2019-04-23T13:35:27.998Z,21.00
2019-04-23T13:37:57.275Z,20.70
2019-04-23T13:40:16.728Z,20.80
2019-04-23T13:45:35.287Z,21.10
2019-04-23T13:47:53.275Z,20.90
2019-04-23T13:55:09.388Z,20.90
2019-04-23T13:58:02.674Z,20.80
2019-04-23T14:00:21.858Z,20.60
2019-04-23T14:02:46.103Z,20.80
2019-04-23T14:05:23.753Z,20.30
2019-04-23T14:07:56.985Z,20.00
2019-04-23T14:10:24.607Z,20.10
2019-04-23T14:12:53.442Z,20.10
2019-04-23T14:18:22.670Z,20.00
2019-04-23T14:20:28.219Z,20.20
2019-04-23T14:25:52.106Z,19.80
2019-04-23T14:28:04.277Z,20.10
2019-04-23T14:30:29.379Z,20.40
2019-04-23T14:33:03.390Z,20.50
2019-04-23T14:35:37.209Z,20.00
2019-04-23T14:38:15.884Z,20.30
2019-04-23T14:40:56.055Z,20.60
2019-04-23T14:43:19.485Z,20.80
2019-04-23T14:45:44.656Z,21.00
2019-04-23T14:48:06.790Z,20.40
2019-04-23T14:53:12.102Z,20.60
2019-04-23T14:58:10.120Z,20.70
2019-04-23T15:00:44.562Z,20.60
2019-04-23T15:03:08.697Z,20.60
2019-04-23T15:05:45.083Z,20.40
2019-04-23T15:08:04.014Z,20.20
2019-04-23T15:10:41.748Z,20.00
2019-04-23T15:13:12.566Z,20.10
2019-04-23T15:15:34.534Z,20.00
2019-04-23T15:18:13.538Z,19.60
2019-04-23T15:21:01.295Z,19.80
2019-04-23T15:23:33.474Z,19.80
2019-04-23T15:26:16.139Z,19.70
2019-04-23T15:28:06.527Z,19.80
2019-04-23T15:30:50.846Z,19.80
2019-04-23T15:35:53.347Z,20.00
2019-04-23T15:40:45.752Z,19.50
2019-04-23T15:43:17.290Z,19.40
2019-04-23T15:45:44.515Z,19.50
2019-04-23T15:48:22.488Z,19.50
2019-04-23T15:50:43.987Z,19.20
2019-04-23T15:53:05.968Z,19.30
2019-04-23T15:55:43.838Z,19.30
2019-04-23T15:58:17.462Z,19.20
2019-04-23T16:00:42.319Z,19.10
2019-04-23T16:02:42.075Z,19.00
2019-04-23T16:05:12.103Z,18.90
2019-04-23T16:07:54.945Z,19.10
2019-04-23T16:10:45.490Z,19.00
2019-04-23T16:13:12.698Z,18.70
2019-04-23T16:18:23.568Z,18.70
2019-04-23T16:23:17.891Z,18.70
2019-04-23T16:25:44.394Z,18.60
2019-04-23T16:28:23.956Z,18.70
2019-04-23T16:30:46.545Z,18.80
2019-04-23T16:33:11.085Z,18.60
2019-04-23T16:43:18.497Z,18.90
2019-04-23T16:45:51.346Z,18.90
2019-04-23T16:48:36.553Z,18.80
2019-04-23T16:51:13.634Z,18.60
2019-04-23T16:53:27.546Z,18.60
2019-04-23T16:55:55.299Z,18.30
2019-04-23T16:58:25.312Z,18.40
2019-04-23T17:01:05.455Z,18.20
2019-04-23T17:03:29.021Z,17.90
2019-04-23T17:06:01.294Z,18.00
2019-04-23T17:11:00.432Z,18.00
2019-04-23T17:13:25.553Z,17.90
2019-04-23T17:15:58.593Z,17.70
2019-04-23T17:18:28.946Z,17.60
2019-04-23T17:20:53.419Z,17.80
2019-04-23T17:23:32.846Z,17.60
2019-04-23T17:25:55.949Z,17.50
2019-04-23T17:28:21.698Z,17.50
2019-04-23T17:31:03.972Z,17.60
2019-04-23T17:33:27.625Z,17.60
2019-04-23T17:39:03.530Z,17.40
2019-04-23T17:41:31.392Z,17.40
2019-04-23T17:44:09.522Z,17.30
2019-04-23T17:49:06.057Z,17.00
2019-04-23T17:51:26.276Z,17.30
2019-04-23T17:59:04.273Z,17.10
2019-04-23T18:01:41.849Z,17.30
2019-04-23T18:04:29.652Z,17.00
2019-04-23T18:06:37.352Z,17.10
2019-04-23T18:09:08.894Z,16.80
2019-04-23T18:11:31.346Z,16.80
2019-04-23T18:14:03.822Z,17.00
2019-04-23T18:21:44.003Z,16.80
2019-04-23T18:24:22.672Z,16.90
2019-04-23T18:29:31.586Z,16.70
2019-04-23T18:34:53.881Z,16.70
2019-04-23T18:37:10.692Z,16.60
2019-04-23T18:39:37.327Z,16.50
2019-04-23T18:47:09.022Z,16.50
2019-04-23T18:49:41.043Z,16.40
2019-04-23T18:52:20.574Z,16.10
2019-04-23T18:54:34.736Z,16.20
2019-04-23T18:59:47.425Z,16.10
2019-04-23T19:02:24.117Z,16.20
2019-04-23T19:07:58.614Z,16.20
2019-04-23T19:15:25.995Z,16.10
2019-04-23T19:20:35.316Z,16.10
2019-04-23T19:22:53.153Z,16.10
2019-04-23T19:25:15.428Z,15.90
2019-04-23T19:27:47.284Z,15.90
2019-04-23T19:30:32.987Z,15.80
2019-04-23T19:32:48.968Z,16.00
2019-04-23T19:35:33.598Z,15.80
2019-04-23T19:40:20.178Z,15.80
2019-04-23T19:42:49.027Z,15.70
2019-04-23T19:45:24.527Z,15.80
2019-04-23T19:47:56.931Z,15.80
2019-04-23T19:50:27.554Z,15.70
2019-04-23T19:53:03.196Z,15.80
2019-04-23T19:55:19.480Z,15.70
2019-04-23T19:57:49.239Z,15.80
2019-04-23T20:00:17.076Z,15.90
2019-04-23T20:05:13.523Z,15.70
2019-04-23T20:07:54.212Z,15.90
2019-04-23T20:10:13.349Z,15.80
2019-04-23T20:12:44.602Z,15.80
2019-04-23T20:15:13.513Z,15.80
2019-04-23T20:20:19.125Z,16.10
2019-04-23T20:22:52.251Z,16.10
2019-04-23T20:27:58.814Z,16.20
2019-04-23T20:31:05.412Z,16.00
2019-04-23T20:35:38.481Z,16.00
2019-04-23T20:40:48.550Z,16.20
2019-04-23T20:43:07.417Z,16.10
2019-04-23T20:48:05.886Z,16.20
2019-04-23T20:50:40.999Z,16.20
2019-04-23T20:53:09.246Z,16.10
2019-04-23T20:56:01.461Z,16.10
2019-04-23T20:58:32.310Z,16.00
2019-04-23T21:01:11.131Z,16.00
2019-04-23T21:06:04.294Z,16.10
2019-04-23T21:09:07.422Z,16.20
2019-04-23T21:13:50.656Z,16.10
2019-04-23T21:16:13.160Z,16.30
2019-04-23T21:18:31.616Z,16.30
2019-04-23T21:21:00.882Z,16.10
2019-04-23T21:26:01.877Z,16.20
2019-04-23T21:33:40.866Z,16.30
2019-04-23T21:36:13.843Z,16.30
2019-04-23T21:44:08.241Z,16.30
2019-04-23T21:53:55.472Z,16.30
2019-04-23T21:56:31.172Z,16.30
2019-04-23T22:04:08.590Z,16.20
2019-04-23T22:11:53.759Z,16.20
2019-04-23T22:14:07.797Z,16.20
2019-04-23T22:16:35.543Z,16.10
2019-04-23T22:21:47.297Z,16.00
2019-04-23T22:24:04.287Z,16.00
2019-04-23T22:31:37.824Z,16.10
2019-04-23T22:34:09.210Z,15.90
2019-04-23T22:36:36.716Z,15.90
2019-04-23T22:41:36.200Z,15.90
2019-04-23T22:44:07.031Z,16.10
2019-04-23T22:46:43.281Z,15.90
2019-04-23T22:49:14.328Z,16.00
2019-04-23T22:51:55.427Z,16.10
2019-04-23T22:54:09.787Z,15.90
2019-04-23T22:56:51.909Z,16.00
2019-04-23T23:01:59.152Z,15.90
2019-04-23T23:06:55.607Z,15.90
2019-04-23T23:11:49.640Z,15.80
2019-04-23T23:14:20.141Z,15.80
2019-04-23T23:16:45.315Z,15.80
2019-04-23T23:19:23.714Z,15.70
2019-04-23T23:21:59.349Z,15.90
2019-04-23T23:24:13.727Z,15.90
2019-04-23T23:26:52.749Z,15.90
2019-04-23T23:29:15.487Z,15.70
2019-04-23T23:31:54.490Z,15.70
2019-04-23T23:34:15.481Z,15.80
2019-04-23T23:41:50.153Z,15.70
2019-04-23T23:49:20.388Z,15.50
2019-04-23T23:51:47.557Z,15.60
2019-04-23T23:56:52.317Z,15.50
2019-04-23T23:59:18.350Z,15.50
